sensor_id;sensor_type;location;lat;lon;timestamp;temperature;humidity
26803;DHT22;14378;51.796;5.808;2024-01-07T00:01:46;4.30;99.90
26803;DHT22;14378;51.796;5.808;2024-01-07T00:03:48;4.30;99.90
26803;DHT22;14378;51.796;5.808;2024-01-07T00:05:49;4.30;99.90
26803;DHT22;14378;51.796;5.808;2024-01-07T00:07:51;4.30;99.90
26803;DHT22;14378;51.796;5.808;2024-01-07T00:09:53;4.30;99.90
26803;DHT22;14378;51.796;5.808;2024-01-07T00:12:00;4.30;99.90
26803;DHT22;14378;51.796;5.808;2024-01-07T00:14:01;4.20;99.90
26803;DHT22;14378;51.796;5.808;2024-01-07T00:16:02;4.30;99.90
26803;DHT22;14378;51.796;5.808;2024-01-07T00:18:03;4.20;99.90
26803;DHT22;14378;51.796;5.808;2024-01-07T00:20:04;4.30;99.90
26803;DHT22;14378;51.796;5.808;2024-01-07T00:22:05;4.30;99.90
26803;DHT22;14378;51.796;5.808;2024-01-07T00:24:06;4.20;99.90
26803;DHT22;14378;51.796;5.808;2024-01-07T00:26:13;4.30;99.90
26803;DHT22;14378;51.796;5.808;2024-01-07T00:28:14;4.30;99.90
26803;DHT22;14378;51.796;5.808;2024-01-07T00:30:15;4.30;99.90
26803;DHT22;14378;51.796;5.808;2024-01-07T00:32:16;4.30;99.90
26803;DHT22;14378;51.796;5.808;2024-01-07T00:34:17;4.30;99.90
26803;DHT22;14378;51.796;5.808;2024-01-07T00:36:18;4.20;99.90
26803;DHT22;14378;51.796;5.808;2024-01-07T00:38:19;4.20;99.90
26803;DHT22;14378;51.796;5.808;2024-01-07T00:40:20;4.30;99.90
26803;DHT22;14378;51.796;5.808;2024-01-07T00:42:21;4.30;99.90
26803;DHT22;14378;51.796;5.808;2024-01-07T00:44:22;4.30;99.90
26803;DHT22;14378;51.796;5.808;2024-01-07T00:46:23;4.30;99.90
26803;DHT22;14378;51.796;5.808;2024-01-07T00:48:24;4.20;99.90
26803;DHT22;14378;51.796;5.808;2024-01-07T00:50:26;4.20;99.90
26803;DHT22;14378;51.796;5.808;2024-01-07T00:52:26;4.20;99.90
26803;DHT22;14378;51.796;5.808;2024-01-07T00:54:27;4.20;99.90
26803;DHT22;14378;51.796;5.808;2024-01-07T00:56:28;4.20;99.90
26803;DHT22;14378;51.796;5.808;2024-01-07T00:58:29;4.20;99.90
26803;DHT22;14378;51.796;5.808;2024-01-07T01:00:30;4.20;99.90
26803;DHT22;14378;51.796;5.808;2024-01-07T01:02:31;4.20;99.90
26803;DHT22;14378;51.796;5.808;2024-01-07T01:04:32;4.20;99.90
26803;DHT22;14378;51.796;5.808;2024-01-07T01:06:33;4.20;99.90
26803;DHT22;14378;51.796;5.808;2024-01-07T01:08:33;4.20;99.90
26803;DHT22;14378;51.796;5.808;2024-01-07T01:10:34;4.20;99.90
26803;DHT22;14378;51.796;5.808;2024-01-07T01:12:35;4.20;99.90
26803;DHT22;14378;51.796;5.808;2024-01-07T01:14:36;4.20;99.90
26803;DHT22;14378;51.796;5.808;2024-01-07T01:16:37;4.20;99.90
26803;DHT22;14378;51.796;5.808;2024-01-07T01:18:38;4.20;99.90
26803;DHT22;14378;51.796;5.808;2024-01-07T01:20:39;4.20;99.90
26803;DHT22;14378;51.796;5.808;2024-01-07T01:22:40;4.20;99.90
26803;DHT22;14378;51.796;5.808;2024-01-07T01:24:40;4.10;99.90
26803;DHT22;14378;51.796;5.808;2024-01-07T01:26:42;4.10;99.90
26803;DHT22;14378;51.796;5.808;2024-01-07T01:28:43;4.10;99.90
26803;DHT22;14378;51.796;5.808;2024-01-07T01:30:44;4.10;99.90
26803;DHT22;14378;51.796;5.808;2024-01-07T01:32:45;4.10;99.90
26803;DHT22;14378;51.796;5.808;2024-01-07T01:34:46;4.10;99.90
26803;DHT22;14378;51.796;5.808;2024-01-07T01:36:47;4.10;99.90
26803;DHT22;14378;51.796;5.808;2024-01-07T01:38:48;4.10;99.90
26803;DHT22;14378;51.796;5.808;2024-01-07T01:40:53;4.10;99.90
26803;DHT22;14378;51.796;5.808;2024-01-07T01:42:54;4.10;99.90
26803;DHT22;14378;51.796;5.808;2024-01-07T01:44:55;4.10;99.90
26803;DHT22;14378;51.796;5.808;2024-01-07T01:47:00;4.20;99.90
26803;DHT22;14378;51.796;5.808;2024-01-07T01:49:02;4.20;99.90
26803;DHT22;14378;51.796;5.808;2024-01-07T01:51:03;4.20;99.90
26803;DHT22;14378;51.796;5.808;2024-01-07T01:53:03;4.20;99.90
26803;DHT22;14378;51.796;5.808;2024-01-07T01:55:04;4.20;99.90
26803;DHT22;14378;51.796;5.808;2024-01-07T01:57:05;4.30;99.90
26803;DHT22;14378;51.796;5.808;2024-01-07T01:59:08;4.20;99.90
26803;DHT22;14378;51.796;5.808;2024-01-07T02:01:09;4.20;99.90
26803;DHT22;14378;51.796;5.808;2024-01-07T02:03:10;4.20;99.90
26803;DHT22;14378;51.796;5.808;2024-01-07T02:05:11;4.10;99.90
26803;DHT22;14378;51.796;5.808;2024-01-07T02:07:16;4.10;99.90
26803;DHT22;14378;51.796;5.808;2024-01-07T02:09:17;4.10;99.90
26803;DHT22;14378;51.796;5.808;2024-01-07T02:11:19;4.10;99.90
26803;DHT22;14378;51.796;5.808;2024-01-07T02:13:20;4.10;99.90
26803;DHT22;14378;51.796;5.808;2024-01-07T02:15:21;4.10;99.90
26803;DHT22;14378;51.796;5.808;2024-01-07T02:17:23;4.10;99.90
26803;DHT22;14378;51.796;5.808;2024-01-07T02:19:24;4.10;99.90
26803;DHT22;14378;51.796;5.808;2024-01-07T02:21:25;4.10;99.90
26803;DHT22;14378;51.796;5.808;2024-01-07T02:23:25;4.10;99.90
26803;DHT22;14378;51.796;5.808;2024-01-07T02:25:26;4.10;99.90
26803;DHT22;14378;51.796;5.808;2024-01-07T02:27:27;4.10;99.90
26803;DHT22;14378;51.796;5.808;2024-01-07T02:29:29;4.10;99.90
26803;DHT22;14378;51.796;5.808;2024-01-07T02:31:30;4.10;99.90
26803;DHT22;14378;51.796;5.808;2024-01-07T02:33:32;4.00;99.90
26803;DHT22;14378;51.796;5.808;2024-01-07T02:35:33;4.10;99.90
26803;DHT22;14378;51.796;5.808;2024-01-07T02:37:34;4.00;99.90
26803;DHT22;14378;51.796;5.808;2024-01-07T02:39:35;4.10;99.90
26803;DHT22;14378;51.796;5.808;2024-01-07T02:41:36;4.10;99.90
26803;DHT22;14378;51.796;5.808;2024-01-07T02:43:37;4.00;99.90
26803;DHT22;14378;51.796;5.808;2024-01-07T02:45:39;4.00;99.90
26803;DHT22;14378;51.796;5.808;2024-01-07T02:47:39;4.00;99.90
26803;DHT22;14378;51.796;5.808;2024-01-07T02:49:40;4.00;99.90
26803;DHT22;14378;51.796;5.808;2024-01-07T02:51:41;4.00;99.90
26803;DHT22;14378;51.796;5.808;2024-01-07T02:53:43;4.00;99.90
26803;DHT22;14378;51.796;5.808;2024-01-07T02:55:44;4.00;99.90
26803;DHT22;14378;51.796;5.808;2024-01-07T02:57:44;4.00;99.90
26803;DHT22;14378;51.796;5.808;2024-01-07T02:59:45;4.00;99.90
26803;DHT22;14378;51.796;5.808;2024-01-07T03:01:46;4.00;99.90
26803;DHT22;14378;51.796;5.808;2024-01-07T03:03:47;3.90;99.90
26803;DHT22;14378;51.796;5.808;2024-01-07T03:05:48;3.90;99.90
26803;DHT22;14378;51.796;5.808;2024-01-07T03:07:49;3.90;99.90
26803;DHT22;14378;51.796;5.808;2024-01-07T03:09:50;3.80;99.90
26803;DHT22;14378;51.796;5.808;2024-01-07T03:11:51;3.80;99.90
26803;DHT22;14378;51.796;5.808;2024-01-07T03:13:51;3.80;99.90
26803;DHT22;14378;51.796;5.808;2024-01-07T03:15:52;3.70;99.90
26803;DHT22;14378;51.796;5.808;2024-01-07T03:17:53;3.60;99.90
26803;DHT22;14378;51.796;5.808;2024-01-07T03:19:54;3.60;99.90
26803;DHT22;14378;51.796;5.808;2024-01-07T03:21:55;3.50;99.90
26803;DHT22;14378;51.796;5.808;2024-01-07T03:23:56;3.50;99.90
26803;DHT22;14378;51.796;5.808;2024-01-07T03:25:58;3.60;99.90
26803;DHT22;14378;51.796;5.808;2024-01-07T03:27:59;3.60;99.90
26803;DHT22;14378;51.796;5.808;2024-01-07T03:30:00;3.60;99.90
26803;DHT22;14378;51.796;5.808;2024-01-07T03:32:00;3.60;99.90
26803;DHT22;14378;51.796;5.808;2024-01-07T03:34:01;3.50;99.90
26803;DHT22;14378;51.796;5.808;2024-01-07T03:36:09;3.50;99.90
26803;DHT22;14378;51.796;5.808;2024-01-07T03:38:10;3.50;99.90
26803;DHT22;14378;51.796;5.808;2024-01-07T03:40:12;3.40;99.90
26803;DHT22;14378;51.796;5.808;2024-01-07T03:42:13;3.50;99.90
26803;DHT22;14378;51.796;5.808;2024-01-07T03:44:14;3.40;99.90
26803;DHT22;14378;51.796;5.808;2024-01-07T03:46:16;3.50;99.90
26803;DHT22;14378;51.796;5.808;2024-01-07T03:48:17;3.50;99.90
26803;DHT22;14378;51.796;5.808;2024-01-07T03:50:18;3.50;99.90
26803;DHT22;14378;51.796;5.808;2024-01-07T03:52:19;3.50;99.90
26803;DHT22;14378;51.796;5.808;2024-01-07T03:54:20;3.50;99.90
26803;DHT22;14378;51.796;5.808;2024-01-07T03:56:20;3.50;99.90
26803;DHT22;14378;51.796;5.808;2024-01-07T03:58:22;3.40;99.90
26803;DHT22;14378;51.796;5.808;2024-01-07T04:00:22;3.40;99.90
26803;DHT22;14378;51.796;5.808;2024-01-07T04:02:23;3.30;99.90
26803;DHT22;14378;51.796;5.808;2024-01-07T04:04:24;3.30;99.90
26803;DHT22;14378;51.796;5.808;2024-01-07T04:06:25;3.30;99.90
26803;DHT22;14378;51.796;5.808;2024-01-07T04:08:26;3.30;99.90
26803;DHT22;14378;51.796;5.808;2024-01-07T04:10:26;3.30;99.90
26803;DHT22;14378;51.796;5.808;2024-01-07T04:12:27;3.30;99.90
26803;DHT22;14378;51.796;5.808;2024-01-07T04:14:28;3.30;99.90
26803;DHT22;14378;51.796;5.808;2024-01-07T04:16:30;3.30;99.90
26803;DHT22;14378;51.796;5.808;2024-01-07T04:18:31;3.40;99.90
26803;DHT22;14378;51.796;5.808;2024-01-07T04:20:31;3.30;99.90
26803;DHT22;14378;51.796;5.808;2024-01-07T04:22:32;3.30;99.90
26803;DHT22;14378;51.796;5.808;2024-01-07T04:24:40;3.30;99.90
26803;DHT22;14378;51.796;5.808;2024-01-07T04:26:40;3.30;99.90
26803;DHT22;14378;51.796;5.808;2024-01-07T04:28:42;3.30;99.90
26803;DHT22;14378;51.796;5.808;2024-01-07T04:30:43;3.20;99.90
26803;DHT22;14378;51.796;5.808;2024-01-07T04:32:44;3.20;99.90
26803;DHT22;14378;51.796;5.808;2024-01-07T04:34:45;3.20;99.90
26803;DHT22;14378;51.796;5.808;2024-01-07T04:36:46;3.20;99.90
26803;DHT22;14378;51.796;5.808;2024-01-07T04:38:48;3.20;99.90
26803;DHT22;14378;51.796;5.808;2024-01-07T04:40:49;3.20;99.90
26803;DHT22;14378;51.796;5.808;2024-01-07T04:42:50;3.10;99.90
26803;DHT22;14378;51.796;5.808;2024-01-07T04:44:50;3.10;99.90
26803;DHT22;14378;51.796;5.808;2024-01-07T04:46:51;3.10;99.90
26803;DHT22;14378;51.796;5.808;2024-01-07T04:48:52;3.20;99.90
26803;DHT22;14378;51.796;5.808;2024-01-07T04:50:54;3.20;99.90
26803;DHT22;14378;51.796;5.808;2024-01-07T04:52:55;3.10;99.90
26803;DHT22;14378;51.796;5.808;2024-01-07T04:54:56;3.10;99.90
26803;DHT22;14378;51.796;5.808;2024-01-07T04:56:57;3.10;99.90
26803;DHT22;14378;51.796;5.808;2024-01-07T04:58:58;3.10;99.90
26803;DHT22;14378;51.796;5.808;2024-01-07T05:00:59;3.10;99.90
26803;DHT22;14378;51.796;5.808;2024-01-07T05:02:59;3.10;99.90
26803;DHT22;14378;51.796;5.808;2024-01-07T05:05:00;3.10;99.90
26803;DHT22;14378;51.796;5.808;2024-01-07T05:07:02;3.10;99.90
26803;DHT22;14378;51.796;5.808;2024-01-07T05:09:03;3.10;99.90
26803;DHT22;14378;51.796;5.808;2024-01-07T05:11:06;3.10;99.90
26803;DHT22;14378;51.796;5.808;2024-01-07T05:13:07;3.00;99.90
26803;DHT22;14378;51.796;5.808;2024-01-07T05:15:08;3.00;99.90
26803;DHT22;14378;51.796;5.808;2024-01-07T05:17:10;3.00;99.90
26803;DHT22;14378;51.796;5.808;2024-01-07T05:19:10;3.00;99.90
26803;DHT22;14378;51.796;5.808;2024-01-07T05:21:11;2.90;99.90
26803;DHT22;14378;51.796;5.808;2024-01-07T05:23:12;2.90;99.90
26803;DHT22;14378;51.796;5.808;2024-01-07T05:25:13;2.90;99.90
26803;DHT22;14378;51.796;5.808;2024-01-07T05:27:14;2.90;99.90
26803;DHT22;14378;51.796;5.808;2024-01-07T05:29:16;2.90;99.90
26803;DHT22;14378;51.796;5.808;2024-01-07T05:31:18;2.90;99.90
26803;DHT22;14378;51.796;5.808;2024-01-07T05:33:19;2.90;99.90
26803;DHT22;14378;51.796;5.808;2024-01-07T05:35:20;2.90;99.90
26803;DHT22;14378;51.796;5.808;2024-01-07T05:37:21;2.90;99.90
26803;DHT22;14378;51.796;5.808;2024-01-07T05:39:22;2.90;99.90
26803;DHT22;14378;51.796;5.808;2024-01-07T05:41:23;2.90;99.90
26803;DHT22;14378;51.796;5.808;2024-01-07T05:43:23;2.90;99.90
26803;DHT22;14378;51.796;5.808;2024-01-07T05:45:24;2.90;99.90
26803;DHT22;14378;51.796;5.808;2024-01-07T05:47:25;2.90;99.90
26803;DHT22;14378;51.796;5.808;2024-01-07T05:49:26;2.90;99.90
26803;DHT22;14378;51.796;5.808;2024-01-07T05:51:27;2.90;99.90
26803;DHT22;14378;51.796;5.808;2024-01-07T05:53:28;2.90;99.90
26803;DHT22;14378;51.796;5.808;2024-01-07T05:55:28;2.90;99.90
26803;DHT22;14378;51.796;5.808;2024-01-07T05:57:29;2.90;99.90
26803;DHT22;14378;51.796;5.808;2024-01-07T05:59:30;2.80;99.90
26803;DHT22;14378;51.796;5.808;2024-01-07T06:01:31;2.90;99.90
26803;DHT22;14378;51.796;5.808;2024-01-07T06:03:32;2.80;99.90
26803;DHT22;14378;51.796;5.808;2024-01-07T06:05:34;2.80;99.90
26803;DHT22;14378;51.796;5.808;2024-01-07T06:07:35;2.70;99.90
26803;DHT22;14378;51.796;5.808;2024-01-07T06:09:36;2.70;99.90
26803;DHT22;14378;51.796;5.808;2024-01-07T06:11:36;2.70;99.90
26803;DHT22;14378;51.796;5.808;2024-01-07T06:13:37;2.60;99.90
26803;DHT22;14378;51.796;5.808;2024-01-07T06:15:41;2.70;99.90
26803;DHT22;14378;51.796;5.808;2024-01-07T06:17:42;2.70;99.90
26803;DHT22;14378;51.796;5.808;2024-01-07T06:19:43;2.60;99.90
26803;DHT22;14378;51.796;5.808;2024-01-07T06:21:45;2.70;99.90
26803;DHT22;14378;51.796;5.808;2024-01-07T06:23:46;2.70;99.90
26803;DHT22;14378;51.796;5.808;2024-01-07T06:25:46;2.70;99.90
26803;DHT22;14378;51.796;5.808;2024-01-07T06:27:47;2.70;99.90
26803;DHT22;14378;51.796;5.808;2024-01-07T06:29:48;2.70;99.90
26803;DHT22;14378;51.796;5.808;2024-01-07T06:31:49;2.80;99.90
26803;DHT22;14378;51.796;5.808;2024-01-07T06:33:50;2.80;99.90
26803;DHT22;14378;51.796;5.808;2024-01-07T06:35:51;2.90;99.90
26803;DHT22;14378;51.796;5.808;2024-01-07T06:37:51;2.90;99.90
26803;DHT22;14378;51.796;5.808;2024-01-07T06:39:52;2.90;99.90
26803;DHT22;14378;51.796;5.808;2024-01-07T06:41:53;2.80;99.90
26803;DHT22;14378;51.796;5.808;2024-01-07T06:43:54;2.70;99.90
26803;DHT22;14378;51.796;5.808;2024-01-07T06:45:58;2.60;99.90
26803;DHT22;14378;51.796;5.808;2024-01-07T06:47:59;2.60;99.90
26803;DHT22;14378;51.796;5.808;2024-01-07T06:50:01;2.60;99.90
26803;DHT22;14378;51.796;5.808;2024-01-07T06:52:02;2.60;99.90
26803;DHT22;14378;51.796;5.808;2024-01-07T06:54:03;2.60;99.90
26803;DHT22;14378;51.796;5.808;2024-01-07T06:56:04;2.60;99.90
26803;DHT22;14378;51.796;5.808;2024-01-07T06:58:05;2.60;99.90
26803;DHT22;14378;51.796;5.808;2024-01-07T07:00:06;2.60;99.90
26803;DHT22;14378;51.796;5.808;2024-01-07T07:02:08;2.70;99.90
26803;DHT22;14378;51.796;5.808;2024-01-07T07:04:09;2.60;99.90
26803;DHT22;14378;51.796;5.808;2024-01-07T07:06:10;2.70;99.90
26803;DHT22;14378;51.796;5.808;2024-01-07T07:08:13;2.70;99.90
26803;DHT22;14378;51.796;5.808;2024-01-07T07:10:14;2.70;99.90
26803;DHT22;14378;51.796;5.808;2024-01-07T07:12:15;2.70;99.90
26803;DHT22;14378;51.796;5.808;2024-01-07T07:14:16;2.70;99.90
26803;DHT22;14378;51.796;5.808;2024-01-07T07:16:16;2.60;99.90
26803;DHT22;14378;51.796;5.808;2024-01-07T07:18:17;2.60;99.90
26803;DHT22;14378;51.796;5.808;2024-01-07T07:20:18;2.60;99.90
26803;DHT22;14378;51.796;5.808;2024-01-07T07:22:20;2.60;99.90
26803;DHT22;14378;51.796;5.808;2024-01-07T07:24:21;2.60;99.90
26803;DHT22;14378;51.796;5.808;2024-01-07T07:26:23;2.60;99.90
26803;DHT22;14378;51.796;5.808;2024-01-07T07:28:23;2.50;99.90
26803;DHT22;14378;51.796;5.808;2024-01-07T07:30:24;2.50;99.90
26803;DHT22;14378;51.796;5.808;2024-01-07T07:32:26;2.60;99.90
26803;DHT22;14378;51.796;5.808;2024-01-07T07:34:27;2.60;99.90
26803;DHT22;14378;51.796;5.808;2024-01-07T07:36:27;2.60;99.90
26803;DHT22;14378;51.796;5.808;2024-01-07T07:38:28;2.60;99.90
26803;DHT22;14378;51.796;5.808;2024-01-07T07:40:29;2.50;99.90
26803;DHT22;14378;51.796;5.808;2024-01-07T07:42:30;2.60;99.90
26803;DHT22;14378;51.796;5.808;2024-01-07T07:44:31;2.50;99.90
26803;DHT22;14378;51.796;5.808;2024-01-07T07:46:32;2.50;99.90
26803;DHT22;14378;51.796;5.808;2024-01-07T07:48:33;2.50;99.90
26803;DHT22;14378;51.796;5.808;2024-01-07T07:50:34;2.40;99.90
26803;DHT22;14378;51.796;5.808;2024-01-07T07:52:35;2.40;99.90
26803;DHT22;14378;51.796;5.808;2024-01-07T07:54:39;2.40;99.90
26803;DHT22;14378;51.796;5.808;2024-01-07T07:56:40;2.40;99.90
26803;DHT22;14378;51.796;5.808;2024-01-07T07:58:41;2.40;99.90
26803;DHT22;14378;51.796;5.808;2024-01-07T08:00:42;2.40;99.90
26803;DHT22;14378;51.796;5.808;2024-01-07T08:02:42;2.40;99.90
26803;DHT22;14378;51.796;5.808;2024-01-07T08:04:44;2.40;99.90
26803;DHT22;14378;51.796;5.808;2024-01-07T08:06:45;2.40;99.90
26803;DHT22;14378;51.796;5.808;2024-01-07T08:08:46;2.30;99.90
26803;DHT22;14378;51.796;5.808;2024-01-07T08:10:49;2.30;99.90
26803;DHT22;14378;51.796;5.808;2024-01-07T08:12:50;2.30;99.90
26803;DHT22;14378;51.796;5.808;2024-01-07T08:14:51;2.30;99.90
26803;DHT22;14378;51.796;5.808;2024-01-07T08:16:52;2.30;99.90
26803;DHT22;14378;51.796;5.808;2024-01-07T08:18:53;2.30;99.90
26803;DHT22;14378;51.796;5.808;2024-01-07T08:20:57;2.30;99.90
26803;DHT22;14378;51.796;5.808;2024-01-07T08:22:59;2.30;99.90
26803;DHT22;14378;51.796;5.808;2024-01-07T08:25:00;2.30;99.90
26803;DHT22;14378;51.796;5.808;2024-01-07T08:27:02;2.30;99.90
26803;DHT22;14378;51.796;5.808;2024-01-07T08:29:06;2.20;99.90
26803;DHT22;14378;51.796;5.808;2024-01-07T08:31:07;2.20;99.90
26803;DHT22;14378;51.796;5.808;2024-01-07T08:33:07;2.20;99.90
26803;DHT22;14378;51.796;5.808;2024-01-07T08:35:08;2.20;99.90
26803;DHT22;14378;51.796;5.808;2024-01-07T08:37:10;2.20;99.90
26803;DHT22;14378;51.796;5.808;2024-01-07T08:39:11;2.20;99.90
26803;DHT22;14378;51.796;5.808;2024-01-07T08:41:18;2.20;99.90
26803;DHT22;14378;51.796;5.808;2024-01-07T08:43:19;2.20;99.90
26803;DHT22;14378;51.796;5.808;2024-01-07T08:45:20;2.20;99.90
26803;DHT22;14378;51.796;5.808;2024-01-07T08:47:21;2.20;99.90
26803;DHT22;14378;51.796;5.808;2024-01-07T08:49:22;2.20;99.90
26803;DHT22;14378;51.796;5.808;2024-01-07T08:51:23;2.30;99.90
26803;DHT22;14378;51.796;5.808;2024-01-07T08:53:24;2.30;99.90
26803;DHT22;14378;51.796;5.808;2024-01-07T08:55:25;2.30;99.90
26803;DHT22;14378;51.796;5.808;2024-01-07T08:57:26;2.30;99.90
26803;DHT22;14378;51.796;5.808;2024-01-07T08:59:27;2.30;99.90
26803;DHT22;14378;51.796;5.808;2024-01-07T09:01:28;2.40;99.90
26803;DHT22;14378;51.796;5.808;2024-01-07T09:03:29;2.30;99.90
26803;DHT22;14378;51.796;5.808;2024-01-07T09:05:33;2.30;99.90
26803;DHT22;14378;51.796;5.808;2024-01-07T09:07:34;2.30;99.90
26803;DHT22;14378;51.796;5.808;2024-01-07T09:09:35;2.20;99.90
26803;DHT22;14378;51.796;5.808;2024-01-07T09:11:36;2.20;99.90
26803;DHT22;14378;51.796;5.808;2024-01-07T09:13:39;2.30;99.90
26803;DHT22;14378;51.796;5.808;2024-01-07T09:15:40;2.30;99.90
26803;DHT22;14378;51.796;5.808;2024-01-07T09:17:41;2.30;99.90
26803;DHT22;14378;51.796;5.808;2024-01-07T09:19:45;2.20;99.90
26803;DHT22;14378;51.796;5.808;2024-01-07T09:21:46;2.20;99.90
26803;DHT22;14378;51.796;5.808;2024-01-07T09:23:47;2.20;99.90
26803;DHT22;14378;51.796;5.808;2024-01-07T09:25:48;2.30;99.90
26803;DHT22;14378;51.796;5.808;2024-01-07T09:27:50;2.20;99.90
26803;DHT22;14378;51.796;5.808;2024-01-07T09:29:50;2.20;99.90
26803;DHT22;14378;51.796;5.808;2024-01-07T09:31:53;2.20;99.90
26803;DHT22;14378;51.796;5.808;2024-01-07T09:33:53;2.20;99.90
26803;DHT22;14378;51.796;5.808;2024-01-07T09:35:54;2.30;99.90
26803;DHT22;14378;51.796;5.808;2024-01-07T09:37:55;2.30;99.90
26803;DHT22;14378;51.796;5.808;2024-01-07T09:39:56;2.30;99.90
26803;DHT22;14378;51.796;5.808;2024-01-07T09:41:57;2.30;99.90
26803;DHT22;14378;51.796;5.808;2024-01-07T09:44:00;2.30;99.90
26803;DHT22;14378;51.796;5.808;2024-01-07T09:46:02;2.20;99.90
26803;DHT22;14378;51.796;5.808;2024-01-07T09:48:03;2.20;99.90
26803;DHT22;14378;51.796;5.808;2024-01-07T09:50:05;2.20;99.90
26803;DHT22;14378;51.796;5.808;2024-01-07T09:52:09;2.20;99.90
26803;DHT22;14378;51.796;5.808;2024-01-07T09:54:10;2.10;99.90
26803;DHT22;14378;51.796;5.808;2024-01-07T09:56:20;2.10;99.90
26803;DHT22;14378;51.796;5.808;2024-01-07T09:58:23;2.20;99.90
26803;DHT22;14378;51.796;5.808;2024-01-07T10:00:27;2.10;99.90
26803;DHT22;14378;51.796;5.808;2024-01-07T10:02:29;2.10;99.90
26803;DHT22;14378;51.796;5.808;2024-01-07T10:04:30;2.20;99.90
26803;DHT22;14378;51.796;5.808;2024-01-07T10:06:32;2.20;99.90
26803;DHT22;14378;51.796;5.808;2024-01-07T10:08:32;2.20;99.90
26803;DHT22;14378;51.796;5.808;2024-01-07T10:10:35;2.20;99.90
26803;DHT22;14378;51.796;5.808;2024-01-07T10:12:36;2.30;99.90
26803;DHT22;14378;51.796;5.808;2024-01-07T10:14:38;2.30;99.90
26803;DHT22;14378;51.796;5.808;2024-01-07T10:16:41;2.20;99.90
26803;DHT22;14378;51.796;5.808;2024-01-07T10:18:42;2.20;99.90
26803;DHT22;14378;51.796;5.808;2024-01-07T10:20:43;2.20;99.90
26803;DHT22;14378;51.796;5.808;2024-01-07T10:22:50;2.20;99.90
26803;DHT22;14378;51.796;5.808;2024-01-07T10:24:52;2.10;99.90
26803;DHT22;14378;51.796;5.808;2024-01-07T10:26:52;2.10;99.90
26803;DHT22;14378;51.796;5.808;2024-01-07T10:28:53;2.10;99.90
26803;DHT22;14378;51.796;5.808;2024-01-07T10:30:55;2.00;99.90
26803;DHT22;14378;51.796;5.808;2024-01-07T10:32:57;2.10;99.90
26803;DHT22;14378;51.796;5.808;2024-01-07T10:35:03;2.10;99.90
26803;DHT22;14378;51.796;5.808;2024-01-07T10:37:05;2.10;99.90
26803;DHT22;14378;51.796;5.808;2024-01-07T10:39:06;2.20;99.90
26803;DHT22;14378;51.796;5.808;2024-01-07T10:41:08;2.20;99.90
26803;DHT22;14378;51.796;5.808;2024-01-07T10:43:10;2.20;99.90
26803;DHT22;14378;51.796;5.808;2024-01-07T10:45:15;2.30;99.90
26803;DHT22;14378;51.796;5.808;2024-01-07T10:47:19;2.30;99.90
26803;DHT22;14378;51.796;5.808;2024-01-07T10:49:30;2.30;99.90
26803;DHT22;14378;51.796;5.808;2024-01-07T10:51:34;2.30;99.90
26803;DHT22;14378;51.796;5.808;2024-01-07T10:53:39;2.30;99.90
26803;DHT22;14378;51.796;5.808;2024-01-07T10:55:49;2.30;99.90
26803;DHT22;14378;51.796;5.808;2024-01-07T10:57:53;2.30;99.90
26803;DHT22;14378;51.796;5.808;2024-01-07T10:59:57;2.30;99.90
26803;DHT22;14378;51.796;5.808;2024-01-07T11:01:59;2.30;99.90
26803;DHT22;14378;51.796;5.808;2024-01-07T11:06:36;2.40;99.90
26803;DHT22;14378;51.796;5.808;2024-01-07T11:08:50;2.50;99.90
26803;DHT22;14378;51.796;5.808;2024-01-07T11:11:06;2.50;99.90
26803;DHT22;14378;51.796;5.808;2024-01-07T11:13:08;2.60;99.90
26803;DHT22;14378;51.796;5.808;2024-01-07T11:15:09;2.60;99.90
26803;DHT22;14378;51.796;5.808;2024-01-07T11:17:11;2.60;99.90
26803;DHT22;14378;51.796;5.808;2024-01-07T11:19:14;2.60;99.90
26803;DHT22;14378;51.796;5.808;2024-01-07T11:21:22;2.60;99.90
26803;DHT22;14378;51.796;5.808;2024-01-07T11:23:34;2.70;99.90
26803;DHT22;14378;51.796;5.808;2024-01-07T11:25:40;2.70;99.90
26803;DHT22;14378;51.796;5.808;2024-01-07T11:27:41;2.70;99.90
26803;DHT22;14378;51.796;5.808;2024-01-07T11:29:42;2.70;99.90
26803;DHT22;14378;51.796;5.808;2024-01-07T11:31:43;2.60;99.90
26803;DHT22;14378;51.796;5.808;2024-01-07T11:33:50;2.60;99.90
26803;DHT22;14378;51.796;5.808;2024-01-07T11:36:02;2.60;99.90
26803;DHT22;14378;51.796;5.808;2024-01-07T11:38:03;2.70;99.90
26803;DHT22;14378;51.796;5.808;2024-01-07T11:40:07;2.70;99.90
26803;DHT22;14378;51.796;5.808;2024-01-07T11:42:11;2.70;99.90
26803;DHT22;14378;51.796;5.808;2024-01-07T11:44:13;2.70;99.90
26803;DHT22;14378;51.796;5.808;2024-01-07T11:46:15;2.70;99.90
26803;DHT22;14378;51.796;5.808;2024-01-07T11:48:16;2.70;99.90
26803;DHT22;14378;51.796;5.808;2024-01-07T11:50:19;2.70;99.90
26803;DHT22;14378;51.796;5.808;2024-01-07T11:55:08;2.70;99.90
26803;DHT22;14378;51.796;5.808;2024-01-07T11:57:10;2.70;99.90
26803;DHT22;14378;51.796;5.808;2024-01-07T11:59:11;2.70;99.90
26803;DHT22;14378;51.796;5.808;2024-01-07T12:01:15;2.70;99.90
26803;DHT22;14378;51.796;5.808;2024-01-07T12:03:16;2.70;99.90
26803;DHT22;14378;51.796;5.808;2024-01-07T12:05:23;2.80;99.90
26803;DHT22;14378;51.796;5.808;2024-01-07T12:07:25;2.90;99.90
26803;DHT22;14378;51.796;5.808;2024-01-07T12:09:54;2.90;99.90
26803;DHT22;14378;51.796;5.808;2024-01-07T12:11:55;2.90;99.90
26803;DHT22;14378;51.796;5.808;2024-01-07T12:13:57;2.80;99.90
26803;DHT22;14378;51.796;5.808;2024-01-07T12:15:58;2.80;99.90
26803;DHT22;14378;51.796;5.808;2024-01-07T12:18:04;2.70;99.90
26803;DHT22;14378;51.796;5.808;2024-01-07T12:20:08;2.60;99.90
26803;DHT22;14378;51.796;5.808;2024-01-07T12:22:09;2.70;99.90
26803;DHT22;14378;51.796;5.808;2024-01-07T12:24:10;2.70;99.90
26803;DHT22;14378;51.796;5.808;2024-01-07T12:26:15;2.80;99.90
26803;DHT22;14378;51.796;5.808;2024-01-07T12:28:19;2.80;99.90
26803;DHT22;14378;51.796;5.808;2024-01-07T12:30:20;2.80;99.90
26803;DHT22;14378;51.796;5.808;2024-01-07T12:32:22;2.80;99.90
26803;DHT22;14378;51.796;5.808;2024-01-07T12:34:25;2.80;99.90
26803;DHT22;14378;51.796;5.808;2024-01-07T12:36:30;2.90;99.90
26803;DHT22;14378;51.796;5.808;2024-01-07T12:38:32;3.10;99.90
26803;DHT22;14378;51.796;5.808;2024-01-07T12:40:33;3.30;99.90
26803;DHT22;14378;51.796;5.808;2024-01-07T12:42:35;3.50;99.90
26803;DHT22;14378;51.796;5.808;2024-01-07T12:44:38;3.80;99.90
26803;DHT22;14378;51.796;5.808;2024-01-07T12:46:39;4.00;99.90
26803;DHT22;14378;51.796;5.808;2024-01-07T12:48:40;4.30;99.90
26803;DHT22;14378;51.796;5.808;2024-01-07T12:50:41;4.30;99.90
26803;DHT22;14378;51.796;5.808;2024-01-07T12:52:42;4.50;99.90
26803;DHT22;14378;51.796;5.808;2024-01-07T12:54:43;4.50;99.90
26803;DHT22;14378;51.796;5.808;2024-01-07T12:56:44;4.80;99.90
26803;DHT22;14378;51.796;5.808;2024-01-07T12:58:45;4.80;99.90
26803;DHT22;14378;51.796;5.808;2024-01-07T13:00:46;4.90;99.90
26803;DHT22;14378;51.796;5.808;2024-01-07T13:02:47;5.10;99.90
26803;DHT22;14378;51.796;5.808;2024-01-07T13:04:50;5.30;99.90
26803;DHT22;14378;51.796;5.808;2024-01-07T13:06:50;5.50;99.90